Inicio > Mis eListas > notisar > Mensajes

 Índice de Mensajes 
 Mensajes 7870 al 7899 
AsuntoAutor
MEXICO Niño mexica notisar1
VENEZUELA Foto del notisar1
NICARAGUA Cae heli notisar1
Re: NICARAGUA Cae francisc
VIDEO ACCIDENTE DE notisar1
Este domingo se ve notisar1
VENEZUELA ACCIDENT notisar1
HAITI Cae avion do notisar1
VENEZUELA Localiza notisar1
GUATEMALA Cae avio notisar1
Calcule la edad de notisar1
EMBARCACION NAZARE notisar1
Venezuela Llamado notisar1
Venezuela culmina notisar1
EEUU Fallecen 19 b notisar1
Primeras imágenes notisar1
COLOMBIA Interfere notisar1
ECUADOR Cae avion notisar1
INDONESIA Fallecen notisar1
JAPON Un pueblo ja notisar1
VENEZUELA 8 Sismos notisar1
COLOMBIA COLISION notisar1
COLOMBIA CONFIRMAD notisar1
COLOMBIA Rescatado notisar1
COLOMBIA Accidente notisar1
COLOMBIA Video res notisar1
COLOMBIA Video res notisar1
COLOMBIA Fotos y v notisar1
Avion Boeing 777 d Rescate
Foto Asiana 777 - Rescate
 << 30 ant. | 30 sig. >>
 
NOTISAR (www.rescate.com)
Página principal    Mensajes | Enviar Mensaje | Ficheros | Datos | Encuestas | Eventos | Mis Preferencias

Mostrando mensaje 7995     < Anterior | Siguiente >
Responder a este mensaje
Asunto:[Notisar] Foto Asiana 777 - San Francisco
Fecha:Domingo, 7 de Julio, 2013  00:22:03 (+0400)
Autor:Rescate Humboldt (www.Rescate.com) <rescatehumboldt @.....com>

ď»¿

Asiana 777
Status: Preliminary
Date: 06 JUL 2013
Time: 11:28
Type:
Boeing 777-28EER
Operator: Asiana Airlines
Registration: HL7742
C/n / msn: 29171/553
First flight: 2005-02-25 (8 years 4 months)
Engines: 2 Pratt & Whitney PW4090
Crew: Fatalities: / Occupants:
Passengers: Fatalities: / Occupants:
Total: Fatalities: / Occupants:
Airplane damage: Written off
Airplane fate: Written off (damaged beyond repair)
Location: San Francisco International Airport, CA (SFO) (United States of America)
Phase: Landing (LDG)
Nature: International Scheduled Passenger
Departure airport: Seoul-Incheon International Airport (ICN/RKSI), South Korea
Destination airport: San Francisco International Airport, CA (SFO/KSFO), United States of America
Flightnumber: 214

Narrative:
A Boeing 777-200 operated by Asiana Airlines crashed while landing at San Francisco International Airport, CA (SFO).
Flight OZ-214 originated in Seoul-Incheon International Airport (ICN), South Korea. The airplane impacted the ground while attempting to land on runway 28L. Photos and videos from the accident scene suggest the tail separated and a fire had erupted. Occupants were seen evacuating from the airplane.

Weather at the time of the accident (11:28 LT / 18:28 Z) was repored as:
KSFO 061756Z 21006KT 10SM FEW016 18/10 A2982 RMK AO2 SLP097 T01780100 10183 20128 51005
KSFO 061856Z 21007KT 170V240 10SM FEW016 18/10 A2982 RMK AO2 SLP098 T01830100





DeepSkyColors en Facebook!
Imagenes de nuestro planeta y del Universo desde los ojos de un fotógrafo español Visita la página en Facebook y dale a ME GUSTA!